Карточка аэропорта UADD

Внимание!
Информация на этой странице в стадии наполнения.
Если вы не увидели какой-то информации, или заметили неточность - пожалуйста сообщите нам!
Спасибо!
Команда RU-STAFF
Название аэропортаТараз
Название аэропорта (англ.)Taraz
Превышение2188 ft. (666.9 m.)
Координаты42°51.702', 71°17.784'
Высота перехода10000ft
Эшелон переходаFL120, QNH<733:FL130
Коды ответчика3476-3477, 3524-3527
Зона ОрВДШымкент РПИ (UAII)
Данные METARUADD 230630Z 29002MPS 240V360 9999 SCT050CB OVC100 19/13 Q1017 NOSIG RMK QFE705/0940
Проноз погоды (TAF)UADD 230500Z 2306/2406 02003G08MPS 9999 BKN050CB OVC100 TX22/2310Z TN12/2322Z TEMPO 2306/2315 06005G10MPS BKN015 TEMPO 2315/2403 18004MPS TEMPO 2403/2406 25008G13MPS -SHRA BKN020CB
NOTAMshow/hide NOTAM
AWOS   TABLE

Информация о ВПП

ВПП Длина ВПП (м.) Покрытие Курс ВПП Частота ILS
133501Асфальтобетон137109.7
313501Асфальтобетон317 

Диспетчерские позиции

Позывной Наименование органа УВД Частота
UADD_TWRТараз Вышка122.1
UADD_APPТараз Подход119.3



Спутниковое изображение